Time;durP1;ratioP1;P1;durP2;ratioP2;P2;SDS_P1;SDS_P2;PMS_P1;PMS_P2;Temp;Humidity;BMP_temperature;BMP_pressure;BME280_temperature;BME280_humidity;BME280_pressure;Samples;Min_cycle;Max_cycle;Signal;HPM_P1;HPM_P2
2023/06/26 00:01:24;;;;;;;11.40;10.20;;;22.30;99.90;;;;;;5054011;28;20041;-66
2023/06/26 00:03:49;;;;;;;13.88;10.63;;;22.00;99.90;;;;;;5036638;28;20422;-66
2023/06/26 00:06:15;;;;;;;11.48;10.38;;;22.10;99.90;;;;;;5053828;28;20131;-67
2023/06/26 00:08:40;;;;;;;11.52;10.05;;;21.90;99.90;;;;;;5052719;28;20523;-66
2023/06/26 00:11:06;;;;;;;9.98;8.77;;;21.90;99.90;;;;;;5053621;28;20045;-68
2023/06/26 00:13:32;;;;;;;10.32;9.27;;;21.80;99.90;;;;;;5053912;28;20048;-66
2023/06/26 00:16:00;;;;;;;10.20;9.10;;;21.80;99.90;;;;;;5054120;28;20129;-67
2023/06/26 00:18:25;;;;;;;10.48;9.02;;;21.80;99.90;;;;;;5053188;28;20497;-66
2023/06/26 00:20:51;;;;;;;12.43;9.95;;;22.00;99.90;;;;;;5053604;28;20178;-67
2023/06/26 00:23:17;;;;;;;11.05;9.38;;;21.80;99.90;;;;;;5052571;28;20040;-67
2023/06/26 00:25:43;;;;;;;11.07;10.07;;;21.90;99.90;;;;;;5053085;28;20045;-67
2023/06/26 00:28:09;;;;;;;12.35;9.15;;;21.90;99.90;;;;;;5053273;28;20125;-67
2023/06/26 00:30:35;;;;;;;11.95;10.65;;;21.90;99.90;;;;;;5052116;28;20052;-66
2023/06/26 00:33:01;;;;;;;11.02;9.88;;;21.90;99.90;;;;;;5052164;28;20446;-68
2023/06/26 00:35:27;;;;;;;11.70;10.25;;;22.00;99.90;;;;;;5036016;28;20048;-68
2023/06/26 00:37:53;;;;;;;11.80;10.68;;;21.80;99.90;;;;;;5053200;28;20360;-67
2023/06/26 00:40:18;;;;;;;11.38;10.27;;;21.80;99.90;;;;;;5053489;28;20484;-68
2023/06/26 00:42:44;;;;;;;11.02;9.93;;;21.70;99.90;;;;;;5053354;28;20040;-66
2023/06/26 00:45:10;;;;;;;13.15;11.88;;;21.40;99.90;;;;;;5053146;28;20401;-67
2023/06/26 00:47:36;;;;;;;12.35;10.38;;;21.60;99.90;;;;;;5050935;28;20045;-66
2023/06/26 00:50:03;;;;;;;10.40;9.50;;;21.50;99.90;;;;;;5051745;28;20056;-68
2023/06/26 00:52:29;;;;;;;13.30;10.40;;;21.40;99.90;;;;;;5053377;28;20049;-67
2023/06/26 00:54:55;;;;;;;11.63;10.35;;;21.50;99.90;;;;;;5053330;28;20448;-67
2023/06/26 00:57:21;;;;;;;13.88;10.05;;;21.30;99.90;;;;;;5052128;28;20055;-67
2023/06/26 00:59:47;;;;;;;11.27;10.10;;;21.40;99.90;;;;;;5052720;28;20052;-66
2023/06/26 01:02:19;;;;;;;13.32;11.02;;;21.50;99.90;;;;;;5053038;28;20056;-66
2023/06/26 01:04:50;;;;;;;12.07;10.90;;;21.30;99.90;;;;;;5051934;28;20389;-66
2023/06/26 01:07:18;;;;;;;11.30;10.20;;;21.80;99.90;;;;;;5052645;28;20126;-66
2023/06/26 01:09:47;;;;;;;11.98;10.88;;;21.20;99.90;;;;;;5052731;28;20049;-66
2023/06/26 01:12:12;;;;;;;11.73;10.55;;;21.20;99.90;;;;;;5052340;28;20159;-67
2023/06/26 01:14:38;;;;;;;19.23;12.20;;;21.10;99.90;;;;;;5052653;28;20080;-68
2023/06/26 01:17:04;;;;;;;13.70;11.18;;;21.10;99.90;;;;;;5052599;28;20474;-67
2023/06/26 01:19:33;;;;;;;12.32;11.02;;;21.10;99.90;;;;;;5051446;28;20051;-66
2023/06/26 01:22:14;;;;;;;13.38;11.98;;;21.40;99.90;;;;;;5051681;28;20053;-67
2023/06/26 01:24:47;;;;;;;11.65;10.65;;;21.00;99.90;;;;;;5052628;28;20045;-67
2023/06/26 01:27:14;;;;;;;10.45;9.45;;;21.00;99.90;;;;;;5052645;28;20049;-66
2023/06/26 01:29:41;;;;;;;12.20;10.90;;;20.80;99.90;;;;;;5052143;28;20489;-66
2023/06/26 01:32:07;;;;;;;11.15;10.00;;;20.90;99.90;;;;;;5052231;28;20129;-66
2023/06/26 01:34:33;;;;;;;10.60;9.60;;;;;;;;;;5052504;28;20140;-67
2023/06/26 01:36:58;;;;;;;11.38;10.27;;;22.60;99.90;;;;;;5052605;28;20057;-68
2023/06/26 01:39:24;;;;;;;10.77;9.68;;;21.00;99.90;;;;;;5051324;28;20049;-68
2023/06/26 01:41:50;;;;;;;8.70;7.80;;;21.00;99.90;;;;;;5052410;28;20481;-66
2023/06/26 01:44:37;;;;;;;10.80;9.75;;;21.10;99.90;;;;;;5052039;28;20040;-67
2023/06/26 01:47:04;;;;;;;11.38;10.07;;;21.00;99.90;;;;;;5052161;28;20090;-68
2023/06/26 01:49:33;;;;;;;9.95;8.95;;;21.00;99.90;;;;;;5052097;28;20053;-66
2023/06/26 01:52:36;;;;;;;11.48;10.38;;;20.90;99.90;;;;;;5052612;28;20041;-68
2023/06/26 01:55:10;;;;;;;10.88;9.82;;;21.00;99.90;;;;;;5052239;28;20048;-67
2023/06/26 01:57:38;;;;;;;10.98;9.02;;;21.00;99.90;;;;;;5053433;28;20072;-66
2023/06/26 02:00:06;;;;;;;11.52;10.52;;;20.90;99.90;;;;;;5054930;28;20114;-67
2023/06/26 02:02:31;;;;;;;11.27;10.23;;;20.90;99.90;;;;;;5055947;28;20120;-67
2023/06/26 02:04:57;;;;;;;10.48;9.48;;;20.90;99.90;;;;;;5055334;28;20072;-66
2023/06/26 02:07:23;;;;;;;11.95;10.75;;;20.90;99.90;;;;;;5055666;28;20465;-68
2023/06/26 02:09:48;;;;;;;12.32;11.07;;;20.90;99.90;;;;;;5038200;28;20076;-68
2023/06/26 02:12:14;;;;;;;11.20;9.68;;;20.90;99.90;;;;;;5054871;28;20049;-67
2023/06/26 02:14:40;;;;;;;11.65;10.57;;;20.80;99.90;;;;;;5055643;28;20124;-67
2023/06/26 02:17:06;;;;;;;11.30;10.25;;;20.80;99.90;;;;;;5055977;28;20165;-67
2023/06/26 02:19:32;;;;;;;10.57;9.60;;;20.90;99.90;;;;;;5055810;28;20065;-66
2023/06/26 02:21:58;;;;;;;9.93;9.00;;;20.90;99.90;;;;;;5055665;28;20473;-67
2023/06/26 02:24:23;;;;;;;11.18;9.60;;;20.90;99.90;;;;;;5054323;28;20469;-66
2023/06/26 02:26:49;;;;;;;10.63;9.60;;;20.80;99.90;;;;;;5055530;28;20045;-66
2023/06/26 02:29:15;;;;;;;10.48;9.10;;;20.80;99.90;;;;;;5055757;28;20389;-67
2023/06/26 02:31:41;;;;;;;9.20;8.32;;;20.80;99.90;;;;;;5054829;28;20106;-67
2023/06/26 02:34:07;;;;;;;8.73;8.00;;;20.50;99.90;;;;;;5055416;28;20408;-67
2023/06/26 02:36:32;;;;;;;9.18;8.38;;;20.80;99.90;;;;;;5055272;28;20068;-67
2023/06/26 02:38:58;;;;;;;9.52;8.63;;;20.80;99.90;;;;;;5054118;28;20044;-66
2023/06/26 02:41:24;;;;;;;9.43;8.52;;;21.10;99.90;;;;;;5038115;28;20053;-67
2023/06/26 02:43:49;;;;;;;11.05;8.88;;;20.90;99.90;;;;;;5055213;28;20045;-66
2023/06/26 02:46:15;;;;;;;10.70;8.70;;;20.90;99.90;;;;;;5054362;28;20525;-67
2023/06/26 02:48:41;;;;;;;10.40;9.40;;;21.30;99.90;;;;;;5055400;28;20131;-66
2023/06/26 02:51:07;;;;;;;9.98;9.07;;;20.90;99.90;;;;;;5055015;28;20047;-66
2023/06/26 02:53:33;;;;;;;9.57;8.68;;;;;;;;;;5054966;28;20041;-68
2023/06/26 02:55:59;;;;;;;10.50;9.13;;;;;;;;;;5054484;28;20064;-66
2023/06/26 02:58:25;;;;;;;10.55;9.50;;;;;;;;;;5054898;28;20052;-66
2023/06/26 03:00:53;;;;;;;12.05;10.80;;;;;;;;;;5054770;28;20096;-67
2023/06/26 03:03:19;;;;;;;10.88;9.70;;;;;;;;;;5054912;28;20051;-66
2023/06/26 03:05:45;;;;;;;13.43;9.80;;;;;;;;;;5053862;28;20045;-68
2023/06/26 03:08:11;;;;;;;11.18;9.25;;;;;;;;;;5055221;28;20045;-66
2023/06/26 03:10:37;;;;;;;10.85;9.75;;;;;;;;;;5053809;28;20045;-66
2023/06/26 03:13:03;;;;;;;12.05;10.60;;;;;;;;;;5054213;28;20393;-68
2023/06/26 03:15:29;;;;;;;10.15;8.88;;;;;;;;;;5053652;28;20048;-67
2023/06/26 03:17:55;;;;;;;12.10;10.75;;;;;;;;;;5054614;28;20049;-66
2023/06/26 03:20:21;;;;;;;12.55;9.98;;;21.00;99.90;;;;;;5054225;28;20132;-67
2023/06/26 03:22:47;;;;;;;10.85;9.75;;;21.00;99.90;;;;;;5054627;28;20069;-67
2023/06/26 03:25:12;;;;;;;12.13;10.95;;;21.00;99.90;;;;;;5054491;28;20041;-69
2023/06/26 03:27:38;;;;;;;11.82;10.73;;;21.00;99.90;;;;;;5053823;28;20120;-68
2023/06/26 03:30:04;;;;;;;10.60;9.60;;;21.00;99.90;;;;;;5054265;28;20131;-67
2023/06/26 03:32:30;;;;;;;10.68;9.30;;;21.00;99.90;;;;;;5054430;28;20511;-66
2023/06/26 03:34:56;;;;;;;11.27;10.18;;;21.00;99.90;;;;;;5054282;28;20056;-66
2023/06/26 03:37:22;;;;;;;10.50;9.52;;;21.00;99.90;;;;;;5054092;28;20095;-68
2023/06/26 03:39:47;;;;;;;11.18;10.00;;;21.00;99.90;;;;;;5054059;28;20081;-67
2023/06/26 03:42:13;;;;;;;12.57;10.75;;;21.00;99.90;;;;;;5054448;28;20128;-67
2023/06/26 03:44:39;;;;;;;12.55;10.15;;;21.10;99.90;;;;;;5052539;28;20045;-68
2023/06/26 03:47:05;;;;;;;12.18;10.35;;;21.10;99.90;;;;;;5054058;28;20124;-66
2023/06/26 03:49:30;;;;;;;11.63;10.52;;;21.10;99.90;;;;;;5053884;28;20518;-66
2023/06/26 03:51:56;;;;;;;11.93;10.75;;;21.10;99.90;;;;;;5053577;28;20037;-67
2023/06/26 03:54:21;;;;;;;11.60;10.55;;;21.10;99.90;;;;;;5052533;28;20060;-67
2023/06/26 03:56:47;;;;;;;11.95;10.68;;;21.20;99.90;;;;;;5053690;28;20051;-66
2023/06/26 03:59:13;;;;;;;12.73;11.40;;;21.20;99.90;;;;;;5054013;28;20045;-67
2023/06/26 04:01:38;;;;;;;11.32;10.18;;;21.30;99.90;;;;;;5054364;28;20461;-67
2023/06/26 04:04:04;;;;;;;12.13;10.82;;;21.30;99.90;;;;;;5052562;28;20077;-66
2023/06/26 04:06:33;;;;;;;11.90;10.65;;;21.40;99.90;;;;;;5053883;28;20048;-67
2023/06/26 04:08:59;;;;;;;11.10;10.00;;;21.50;99.90;;;;;;5053621;28;20098;-66
2023/06/26 04:11:25;;;;;;;10.90;9.30;;;21.50;99.90;;;;;;5053667;28;20049;-66
2023/06/26 04:13:50;;;;;;;11.45;10.25;;;21.60;99.90;;;;;;5052782;28;20358;-66
2023/06/26 04:16:16;;;;;;;11.57;10.02;;;21.60;99.90;;;;;;5053482;28;20041;-67
2023/06/26 04:18:42;;;;;;;13.48;9.40;;;21.50;99.90;;;;;;5053456;28;20454;-68
2023/06/26 04:21:12;;;;;;;11.05;8.60;;;21.60;99.90;;;;;;5053380;28;20477;-68
2023/06/26 04:23:39;;;;;;;11.20;10.00;;;21.60;99.90;;;;;;5053599;28;20052;-67
2023/06/26 04:26:06;;;;;;;13.25;9.20;;;21.50;99.90;;;;;;5053667;28;20041;-67
2023/06/26 04:28:32;;;;;;;12.95;9.50;;;21.60;99.90;;;;;;5053227;28;20124;-66
2023/06/26 04:30:59;;;;;;;11.88;9.75;;;21.60;99.90;;;;;;5053758;28;20045;-66
2023/06/26 04:33:25;;;;;;;9.60;8.70;;;21.50;99.90;;;;;;5053200;28;20045;-67
2023/06/26 04:35:51;;;;;;;10.45;9.35;;;21.60;99.90;;;;;;5053583;28;20075;-66
2023/06/26 04:38:17;;;;;;;11.43;10.23;;;21.60;99.90;;;;;;5053287;28;20048;-66
2023/06/26 04:40:43;;;;;;;13.07;10.38;;;21.60;99.90;;;;;;5052066;28;20064;-67
2023/06/26 04:43:09;;;;;;;10.38;9.27;;;21.70;99.90;;;;;;5053291;28;20041;-68
2023/06/26 04:45:35;;;;;;;11.40;9.07;;;21.70;99.90;;;;;;5052935;28;20057;-66
2023/06/26 04:48:01;;;;;;;9.70;8.73;;;;;;;;;;5052957;28;20052;-66
2023/06/26 04:50:28;;;;;;;11.63;8.52;;;;;;;;;;5051576;28;20048;-68
2023/06/26 04:52:57;;;;;;;11.68;9.32;;;21.90;99.90;;;;;;5052708;28;20432;-68
2023/06/26 04:55:24;;;;;;;10.63;7.43;;;22.00;99.90;;;;;;5052744;28;20045;-67
2023/06/26 04:57:51;;;;;;;12.60;8.57;;;;;;;;;;5051981;28;20045;-67
2023/06/26 05:00:17;;;;;;;9.25;7.35;;;22.20;99.90;;;;;;5052133;28;20377;-67
2023/06/26 05:02:43;;;;;;;11.35;7.55;;;;;;;;;;5052473;28;20128;-66
2023/06/26 05:05:10;;;;;;;10.68;7.63;;;;;;;;;;5052454;28;20066;-68
2023/06/26 05:07:36;;;;;;;10.95;7.07;;;;;;;;;;5052305;28;20055;-66
2023/06/26 05:10:03;;;;;;;12.70;8.20;;;;;;;;;;5052418;28;20049;-68
2023/06/26 05:12:29;;;;;;;11.98;8.10;;;;;;;;;;5052626;28;20128;-66
2023/06/26 05:14:55;;;;;;;12.40;7.85;;;;;;;;;;5052487;28;20114;-66
2023/06/26 05:17:20;;;;;;;12.40;8.10;;;22.40;99.90;;;;;;5052359;28;20095;-66
2023/06/26 05:19:46;;;;;;;10.73;7.28;;;22.50;99.90;;;;;;5052027;28;20049;-67
2023/06/26 05:22:13;;;;;;;12.02;7.43;;;22.30;99.90;;;;;;5051230;28;20045;-67
2023/06/26 05:24:40;;;;;;;11.07;8.25;;;22.20;99.90;;;;;;5052298;28;20049;-66
2023/06/26 05:27:07;;;;;;;10.82;6.97;;;22.30;99.90;;;;;;5052529;28;20045;-68
2023/06/26 05:29:33;;;;;;;12.82;7.15;;;22.30;99.90;;;;;;5052100;28;20083;-67
2023/06/26 05:32:00;;;;;;;11.18;8.50;;;22.30;99.90;;;;;;5051707;28;20487;-67
2023/06/26 05:34:31;;;;;;;10.00;8.10;;;22.40;99.90;;;;;;5051873;28;20103;-64
2023/06/26 05:37:01;;;;;;;13.52;7.50;;;22.40;99.90;;;;;;5052552;28;20057;-64
2023/06/26 05:39:27;;;;;;;14.15;8.10;;;22.40;99.90;;;;;;5052242;28;20055;-65
2023/06/26 05:41:54;;;;;;;13.35;9.20;;;22.30;99.90;;;;;;5052519;28;20044;-67
2023/06/26 05:44:19;;;;;;;13.70;9.30;;;22.20;99.90;;;;;;5051297;28;20065;-66
2023/06/26 05:46:46;;;;;;;15.13;8.32;;;22.00;99.90;;;;;;5051973;28;20048;-66
2023/06/26 05:49:11;;;;;;;15.65;9.30;;;21.90;99.90;;;;;;5051792;28;20048;-67
2023/06/26 05:51:37;;;;;;;14.95;8.88;;;21.80;99.90;;;;;;5051825;28;20266;-66
2023/06/26 05:54:03;;;;;;;14.57;9.13;;;21.70;99.90;;;;;;5034063;28;20041;-67
2023/06/26 05:56:30;;;;;;;12.80;10.00;;;21.60;99.90;;;;;;5052215;28;20049;-67
2023/06/26 05:58:57;;;;;;;14.45;8.82;;;21.60;99.90;;;;;;5051961;28;20061;-66
2023/06/26 06:01:24;;;;;;;11.98;8.05;;;21.60;99.90;;;;;;5051086;28;20054;-67
2023/06/26 06:03:50;;;;;;;11.95;8.00;;;21.60;99.90;;;;;;5051499;28;20401;-66
2023/06/26 06:06:15;;;;;;;12.50;7.95;;;21.50;99.90;;;;;;5050846;28;20045;-67
2023/06/26 06:08:41;;;;;;;13.57;6.78;;;21.50;99.90;;;;;;5051803;28;20067;-66
2023/06/26 06:11:07;;;;;;;11.40;5.72;;;21.30;99.90;;;;;;5051789;28;20121;-67
2023/06/26 06:13:33;;;;;;;9.25;6.28;;;21.30;99.90;;;;;;5051862;28;20045;-69
2023/06/26 06:15:58;;;;;;;10.18;6.50;;;21.30;99.90;;;;;;5052153;28;20442;-68
2023/06/26 06:18:24;;;;;;;11.75;6.50;;;21.40;99.90;;;;;;5051623;28;20052;-68
2023/06/26 06:20:50;;;;;;;9.68;5.47;;;21.60;99.90;;;;;;5051897;28;20049;-65
2023/06/26 06:23:15;;;;;;;9.80;5.53;;;21.90;99.90;;;;;;5050538;28;20393;-66
2023/06/26 06:25:41;;;;;;;6.07;5.28;;;22.20;99.90;;;;;;5052072;28;20052;-67
2023/06/26 06:28:07;;;;;;;7.88;5.75;;;22.50;99.90;;;;;;5051598;28;20053;-67
2023/06/26 06:30:33;;;;;;;10.10;4.88;;;22.60;99.90;;;;;;5050442;28;20045;-67
2023/06/26 06:32:58;;;;;;;13.23;5.00;;;22.80;99.90;;;;;;5050137;28;20120;-67
2023/06/26 06:35:24;;;;;;;6.32;4.78;;;23.40;99.90;;;;;;5052362;28;20133;-68
2023/06/26 06:37:50;;;;;;;7.63;4.13;;;24.10;99.90;;;;;;5051563;28;20052;-66
2023/06/26 06:40:15;;;;;;;6.55;4.70;;;24.70;99.90;;;;;;5050986;28;20126;-66
2023/06/26 06:42:41;;;;;;;6.85;4.13;;;24.60;99.90;;;;;;5051581;28;20483;-66
2023/06/26 06:45:08;;;;;;;8.85;4.13;;;24.00;99.90;;;;;;5053234;28;20041;-67
2023/06/26 06:47:34;;;;;;;10.50;4.03;;;23.60;99.90;;;;;;5055188;28;20048;-68
2023/06/26 06:50:07;;;;;;;8.38;4.25;;;23.70;99.90;;;;;;5055166;28;20105;-67
2023/06/26 06:52:38;;;;;;;5.57;3.10;;;24.20;99.90;;;;;;5055316;28;20049;-68
2023/06/26 06:55:08;;;;;;;7.10;3.10;;;24.80;99.60;;;;;;5054245;28;20124;-68
2023/06/26 06:57:39;;;;;;;6.18;3.28;;;25.60;99.40;;;;;;5055324;28;20068;-67
2023/06/26 07:00:08;;;;;;;8.15;3.13;;;25.80;97.00;;;;;;5055254;28;20053;-67
2023/06/26 07:02:35;;;;;;;5.50;2.83;;;25.90;97.90;;;;;;5053731;28;20111;-68
2023/06/26 07:05:03;;;;;;;5.93;2.83;;;25.70;96.90;;;;;;5054947;28;20048;-67
2023/06/26 07:07:33;;;;;;;5.80;2.38;;;25.60;96.30;;;;;;5053737;28;20055;-67
2023/06/26 07:10:01;;;;;;;6.80;2.47;;;25.70;96.40;;;;;;5053829;28;20124;-67
2023/06/26 07:12:26;;;;;;;4.90;2.35;;;26.00;94.70;;;;;;5054494;28;20087;-68
2023/06/26 07:14:53;;;;;;;7.68;2.92;;;26.50;96.00;;;;;;5054779;28;20040;-66
2023/06/26 07:17:20;;;;;;;5.07;2.30;;;27.10;96.40;;;;;;5054930;28;20095;-66
2023/06/26 07:19:46;;;;;;;6.80;2.08;;;27.50;94.90;;;;;;5054546;28;20049;-67
2023/06/26 07:22:12;;;;;;;6.13;1.88;;;27.30;92.00;;;;;;5054340;28;20462;-66
2023/06/26 07:24:37;;;;;;;3.45;2.05;;;27.60;93.60;;;;;;5054773;28;20056;-66
2023/06/26 07:27:03;;;;;;;4.03;1.75;;;27.60;94.00;;;;;;5054438;28;20471;-68
2023/06/26 07:29:29;;;;;;;4.53;2.30;;;27.80;93.80;;;;;;5053590;28;20464;-68
2023/06/26 07:31:54;;;;;;;5.05;2.70;;;27.80;92.50;;;;;;5054021;28;20449;-67
2023/06/26 07:34:20;;;;;;;4.30;2.30;;;27.70;92.70;;;;;;5054030;28;20065;-67
2023/06/26 07:36:46;;;;;;;4.38;2.25;;;28.20;92.50;;;;;;5054046;28;20044;-67
2023/06/26 07:39:11;;;;;;;2.63;1.80;;;28.40;90.50;;;;;;5054627;28;20484;-67
2023/06/26 07:41:37;;;;;;;5.97;2.15;;;28.30;90.90;;;;;;5054329;28;20435;-67
2023/06/26 07:44:03;;;;;;;2.53;1.90;;;28.20;90.80;;;;;;5036333;28;20041;-67
2023/06/26 07:46:29;;;;;;;6.10;2.00;;;28.50;91.10;;;;;;5053951;28;20072;-67
2023/06/26 07:48:55;;;;;;;6.80;2.20;;;28.80;90.90;;;;;;5053077;28;20049;-68
2023/06/26 07:51:20;;;;;;;4.75;2.10;;;29.20;90.80;;;;;;5053976;28;20450;-66
2023/06/26 07:53:46;;;;;;;4.93;2.10;;;28.80;90.60;;;;;;5053736;28;20047;-66
2023/06/26 07:56:12;;;;;;;3.97;1.88;;;28.70;90.80;;;;;;5053647;28;20067;-68
2023/06/26 07:58:38;;;;;;;3.85;1.95;;;28.40;91.00;;;;;;5054106;28;20045;-67
2023/06/26 08:01:04;;;;;;;2.25;1.73;;;28.00;90.60;;;;;;5053602;28;20045;-67
2023/06/26 08:03:29;;;;;;;4.70;1.83;;;28.10;90.80;;;;;;5052598;28;20061;-68
2023/06/26 08:05:55;;;;;;;5.30;2.58;;;27.50;90.80;;;;;;5054208;28;20051;-68
2023/06/26 08:08:21;;;;;;;8.15;2.53;;;28.00;91.20;;;;;;5053983;28;20527;-66
2023/06/26 08:10:46;;;;;;;4.90;1.67;;;28.70;90.90;;;;;;5054094;28;20112;-66
2023/06/26 08:13:12;;;;;;;3.28;1.90;;;28.10;90.00;;;;;;5054070;28;20434;-67
2023/06/26 08:15:39;;;;;;;3.70;2.00;;;27.70;90.60;;;;;;5053635;28;20056;-70
2023/06/26 08:18:05;;;;;;;2.70;1.55;;;27.30;90.30;;;;;;5053499;28;20509;-67
2023/06/26 08:20:30;;;;;;;4.85;1.73;;;27.40;90.00;;;;;;5052640;28;20134;-68
2023/06/26 08:22:56;;;;;;;3.45;1.65;;;27.90;90.20;;;;;;5053453;28;20497;-67
2023/06/26 08:25:22;;;;;;;3.50;1.60;;;28.60;90.40;;;;;;5053553;28;20049;-67
2023/06/26 08:27:48;;;;;;;3.15;1.50;;;27.80;87.90;;;;;;5052414;28;20178;-68
2023/06/26 08:30:13;;;;;;;3.00;1.90;;;27.30;89.60;;;;;;5052837;28;20444;-69
2023/06/26 08:32:39;;;;;;;2.67;1.60;;;27.00;90.10;;;;;;5053087;28;20045;-67
2023/06/26 08:35:06;;;;;;;3.10;1.70;;;26.10;90.40;;;;;;5052691;28;20466;-67
2023/06/26 08:37:32;;;;;;;5.60;1.88;;;25.60;90.80;;;;;;5052613;28;20053;-67
2023/06/26 08:39:59;;;;;;;3.65;2.25;;;25.60;91.20;;;;;;5052929;28;20565;-68
2023/06/26 08:42:25;;;;;;;2.00;1.25;;;26.60;90.40;;;;;;5053413;28;20049;-67
2023/06/26 08:44:51;;;;;;;3.00;1.67;;;26.80;90.70;;;;;;5052835;28;20477;-66
2023/06/26 08:47:19;;;;;;;3.70;1.85;;;26.60;90.60;;;;;;5052984;28;20120;-66
2023/06/26 08:49:53;;;;;;;2.10;1.83;;;26.30;90.40;;;;;;5053309;28;20367;-67
2023/06/26 08:52:28;;;;;;;3.40;1.80;;;26.40;90.50;;;;;;5053078;28;20060;-68
2023/06/26 08:54:59;;;;;;;3.50;1.95;;;26.40;90.70;;;;;;5052845;28;20041;-67
2023/06/26 08:57:26;;;;;;;3.15;1.30;;;26.60;90.50;;;;;;5053260;28;20044;-67
2023/06/26 08:59:52;;;;;;;4.75;1.88;;;26.60;90.50;;;;;;5053386;28;20048;-67
2023/06/26 09:02:18;;;;;;;3.80;1.85;;;27.30;90.10;;;;;;5052655;28;20442;-67
2023/06/26 09:04:43;;;;;;;3.70;2.15;;;27.40;88.90;;;;;;5035722;28;20479;-67
2023/06/26 09:07:09;;;;;;;2.53;2.20;;;27.00;88.50;;;;;;5052787;28;20037;-68
2023/06/26 09:09:36;;;;;;;2.15;1.70;;;26.40;89.60;;;;;;5052406;28;20383;-69
2023/06/26 09:12:03;;;;;;;2.70;2.17;;;25.90;90.00;;;;;;5052541;28;20076;-68
2023/06/26 09:14:29;;;;;;;4.95;1.83;;;26.40;90.30;;;;;;5052472;28;20469;-67
2023/06/26 09:16:55;;;;;;;3.67;1.73;;;26.90;90.20;;;;;;5052847;28;20044;-67
2023/06/26 09:19:21;;;;;;;2.90;2.20;;;26.90;90.10;;;;;;5052696;28;20037;-67
2023/06/26 09:21:50;;;;;;;6.53;2.20;;;26.80;90.00;;;;;;5052358;28;20049;-68
2023/06/26 09:24:16;;;;;;;5.05;2.38;;;26.60;90.20;;;;;;5052463;28;20130;-69
2023/06/26 09:26:42;;;;;;;2.75;1.90;;;26.00;90.20;;;;;;5051235;28;20067;-68
2023/06/26 09:29:09;;;;;;;2.85;2.13;;;26.10;90.40;;;;;;5052416;28;20120;-68
2023/06/26 09:31:39;;;;;;;2.88;1.90;;;27.00;90.40;;;;;;5052465;28;20056;-68
2023/06/26 09:34:05;;;;;;;3.45;1.55;;;27.90;90.10;;;;;;5051905;28;20053;-68
2023/06/26 09:36:32;;;;;;;3.35;2.03;;;27.90;88.20;;;;;;5052761;28;20057;-68
2023/06/26 09:39:08;;;;;;;7.90;2.10;;;28.00;88.70;;;;;;5052693;28;20049;-68
2023/06/26 09:41:35;;;;;;;3.53;2.05;;;28.20;86.30;;;;;;5052078;28;20465;-68
2023/06/26 09:44:02;;;;;;;3.22;1.55;;;28.60;88.00;;;;;;5052144;28;20041;-67
2023/06/26 09:46:30;;;;;;;2.58;1.58;;;28.20;85.80;;;;;;5052107;28;20041;-68
2023/06/26 09:49:04;;;;;;;4.25;1.75;;;28.30;86.80;;;;;;5051618;28;20068;-67
2023/06/26 09:51:37;;;;;;;3.60;1.65;;;28.10;84.40;;;;;;5052202;28;20080;-66
2023/06/26 09:54:04;;;;;;;2.67;1.83;;;27.90;83.70;;;;;;5051149;28;20048;-68
2023/06/26 09:56:30;;;;;;;4.78;1.67;;;27.10;85.40;;;;;;5052032;28;20428;-67
2023/06/26 09:58:58;;;;;;;2.55;1.70;;;26.40;86.50;;;;;;5052141;28;20110;-68
2023/06/26 10:01:24;;;;;;;1.77;1.52;;;26.00;86.90;;;;;;5050771;28;20478;-67
2023/06/26 10:03:50;;;;;;;5.15;1.90;;;26.80;87.80;;;;;;5051845;28;20138;-66
2023/06/26 10:06:22;;;;;;;4.88;2.30;;;26.70;87.10;;;;;;5052488;28;20057;-66
2023/06/26 10:08:50;;;;;;;5.80;2.25;;;25.90;87.90;;;;;;5051887;28;20124;-67
2023/06/26 10:11:20;;;;;;;5.60;2.40;;;25.90;87.80;;;;;;5050669;28;20049;-67
2023/06/26 10:13:49;;;;;;;3.95;2.30;;;25.30;88.20;;;;;;5051340;28;20162;-67
2023/06/26 10:16:22;;;;;;;3.20;2.30;;;26.10;89.10;;;;;;5051900;28;20078;-66
2023/06/26 10:18:51;;;;;;;3.40;2.03;;;26.20;88.50;;;;;;5053048;28;20041;-66
2023/06/26 10:21:17;;;;;;;2.80;2.20;;;;;;;;;;5055687;28;20049;-65
2023/06/26 10:23:44;;;;;;;2.83;1.90;;;26.50;85.80;;;;;;5056085;28;20110;-67
2023/06/26 10:26:13;;;;;;;2.13;1.92;;;26.20;85.50;;;;;;5055553;28;20052;-67
2023/06/26 10:28:41;;;;;;;6.85;2.25;;;26.40;86.10;;;;;;5055556;28;20052;-66
2023/06/26 10:31:09;;;;;;;4.55;2.38;;;26.40;86.60;;;;;;5055528;28;20056;-67
2023/06/26 10:33:36;;;;;;;2.70;1.95;;;26.10;86.10;;;;;;5055199;28;20114;-67
2023/06/26 10:36:15;;;;;;;4.00;2.40;;;26.10;86.10;;;;;;5054445;28;20381;-67
2023/06/26 10:39:07;;;;;;;4.43;1.83;;;26.60;84.70;;;;;;5055846;28;20041;-67
2023/06/26 10:41:44;;;;;;;3.43;2.30;;;27.10;84.80;;;;;;5051063;28;20045;-67
2023/06/26 10:44:20;;;;;;;2.88;1.70;;;27.30;84.00;;;;;;5055397;28;20037;-68
2023/06/26 10:46:52;;;;;;;3.22;1.80;;;26.80;81.70;;;;;;5054450;28;20045;-68
2023/06/26 10:49:25;;;;;;;3.15;2.08;;;26.90;83.70;;;;;;5055562;28;20055;-68
2023/06/26 10:51:51;;;;;;;4.95;2.08;;;26.70;84.20;;;;;;5055265;28;20048;-67
2023/06/26 10:54:19;;;;;;;5.25;2.03;;;26.40;83.70;;;;;;5055498;28;20124;-66
2023/06/26 10:56:48;;;;;;;2.90;1.88;;;25.90;82.80;;;;;;5055088;28;20049;-66
2023/06/26 10:59:34;;;;;;;2.70;2.10;;;26.40;83.90;;;;;;5055036;28;20124;-66
2023/06/26 11:02:01;;;;;;;3.05;1.98;;;26.70;82.60;;;;;;5054394;28;20056;-67
2023/06/26 11:04:53;;;;;;;3.17;1.58;;;27.10;83.40;;;;;;5055028;28;20045;-65
2023/06/26 11:07:26;;;;;;;2.92;2.10;;;27.30;82.20;;;;;;5054895;28;20055;-67
2023/06/26 11:10:08;;;;;;;6.40;2.95;;;26.90;82.90;;;;;;5054868;28;20037;-67
2023/06/26 11:12:47;;;;;;;7.60;2.55;;;26.60;83.80;;;;;;5055145;28;20056;-66
2023/06/26 11:15:18;;;;;;;3.90;2.40;;;26.30;83.70;;;;;;5054792;28;20048;-66
2023/06/26 11:17:45;;;;;;;2.38;1.92;;;26.10;82.90;;;;;;5054765;28;20374;-65
2023/06/26 11:20:15;;;;;;;5.47;2.05;;;25.60;81.90;;;;;;5054595;28;20049;-65
2023/06/26 11:22:42;;;;;;;2.78;2.38;;;25.50;83.50;;;;;;5055038;28;20055;-65
2023/06/26 11:25:09;;;;;;;5.25;2.00;;;25.20;83.60;;;;;;5054447;28;20049;-67
2023/06/26 11:27:38;;;;;;;4.45;1.63;;;25.20;84.10;;;;;;5053311;28;20119;-66
2023/06/26 11:30:08;;;;;;;3.50;2.45;;;25.40;84.70;;;;;;5052487;28;20087;-65
2023/06/26 11:32:36;;;;;;;4.60;1.92;;;25.80;84.80;;;;;;5053106;28;20084;-67
2023/06/26 11:35:02;;;;;;;4.82;1.92;;;25.80;84.30;;;;;;5054112;28;20059;-65
2023/06/26 11:37:28;;;;;;;4.93;2.20;;;25.90;82.50;;;;;;5054106;28;20128;-65
2023/06/26 11:39:53;;;;;;;2.58;1.88;;;25.70;82.50;;;;;;5054540;28;20049;-66
2023/06/26 11:42:20;;;;;;;1.83;1.48;;;25.60;82.10;;;;;;5054211;28;20045;-64
2023/06/26 11:44:46;;;;;;;2.85;1.67;;;25.40;82.00;;;;;;5053244;28;20045;-65
2023/06/26 11:47:19;;;;;;;6.47;2.15;;;25.60;82.90;;;;;;5054473;28;20461;-66
2023/06/26 11:49:48;;;;;;;4.05;2.20;;;25.70;84.40;;;;;;5054121;28;20053;-65
2023/06/26 11:52:15;;;;;;;3.50;1.77;;;25.90;83.80;;;;;;5052897;28;20092;-66
2023/06/26 11:54:42;;;;;;;3.42;1.85;;;26.20;83.40;;;;;;5053935;28;20131;-65
2023/06/26 11:57:08;;;;;;;9.32;2.25;;;26.40;83.70;;;;;;5053775;28;20052;-66
2023/06/26 11:59:39;;;;;;;7.03;2.20;;;26.00;82.90;;;;;;5053432;28;20036;-67
2023/06/26 12:02:07;;;;;;;1.38;1.27;;;26.00;83.30;;;;;;5054196;28;20053;-66
2023/06/26 12:04:35;;;;;;;2.50;1.70;;;25.60;82.50;;;;;;5053725;28;20044;-66
2023/06/26 12:07:03;;;;;;;3.63;1.75;;;25.20;83.50;;;;;;5054097;28;20053;-66
2023/06/26 12:09:30;;;;;;;8.23;1.92;;;25.10;83.20;;;;;;5052376;28;20054;-66
2023/06/26 12:11:57;;;;;;;4.72;1.65;;;25.30;83.90;;;;;;5053729;28;20049;-67
2023/06/26 12:14:25;;;;;;;3.65;1.55;;;25.40;83.70;;;;;;5053262;28;20116;-67
2023/06/26 12:16:52;;;;;;;3.22;1.60;;;25.30;82.40;;;;;;5052811;28;20048;-66
2023/06/26 12:19:23;;;;;;;4.55;2.03;;;25.30;83.00;;;;;;5053600;28;20468;-66
2023/06/26 12:21:53;;;;;;;6.82;1.65;;;25.20;83.20;;;;;;5052625;28;20060;-67
2023/06/26 12:24:21;;;;;;;3.55;1.52;;;25.00;83.10;;;;;;5053201;28;20053;-67
2023/06/26 12:26:53;;;;;;;6.65;1.63;;;25.00;83.40;;;;;;5052577;28;20554;-68
2023/06/26 12:29:19;;;;;;;3.83;1.30;;;24.90;83.20;;;;;;5053206;28;20056;-67
2023/06/26 12:31:49;;;;;;;3.30;1.45;;;25.00;83.50;;;;;;5052877;28;20499;-66
2023/06/26 12:34:18;;;;;;;10.85;1.83;;;25.20;83.40;;;;;;5052914;28;20069;-66
2023/06/26 12:36:49;;;;;;;4.10;1.42;;;25.40;82.70;;;;;;5053148;28;20128;-66
2023/06/26 12:39:20;;;;;;;4.47;1.90;;;25.60;83.40;;;;;;5052027;28;20431;-67
2023/06/26 12:41:51;;;;;;;4.43;1.52;;;25.50;82.80;;;;;;5052254;28;20049;-67
2023/06/26 12:44:24;;;;;;;4.75;1.45;;;25.50;82.10;;;;;;5052734;28;20041;-67
2023/06/26 12:46:53;;;;;;;3.50;1.80;;;25.50;81.60;;;;;;5053318;28;20048;-66
2023/06/26 12:49:19;;;;;;;6.22;1.60;;;25.20;81.20;;;;;;5052798;28;20120;-67